sensor_id;sensor_type;location;lat;lon;timestamp;pressure;altitude;pressure_sealevel;temperature;humidity
45991;BME280;31721;41.740;-88.000;2023-12-20T00:00:08;99716.58;;;-1.72;46.97
45991;BME280;31721;41.740;-88.000;2023-12-20T00:02:36;99712.91;;;-1.55;47.41
45991;BME280;31721;41.740;-88.000;2023-12-20T00:05:05;99715.20;;;-1.56;47.23
45991;BME280;31721;41.740;-88.000;2023-12-20T00:07:33;99717.21;;;-1.41;46.94
45991;BME280;31721;41.740;-88.000;2023-12-20T00:10:01;99717.77;;;-1.62;47.35
45991;BME280;31721;41.740;-88.000;2023-12-20T00:12:29;99714.30;;;-2.51;49.70
45991;BME280;31721;41.740;-88.000;2023-12-20T00:14:58;99713.14;;;-1.74;47.80
45991;BME280;31721;41.740;-88.000;2023-12-20T00:17:26;99711.10;;;-1.49;47.38
45991;BME280;31721;41.740;-88.000;2023-12-20T00:19:54;99716.42;;;-1.79;47.86
45991;BME280;31721;41.740;-88.000;2023-12-20T00:22:22;99714.11;;;-1.23;46.88
45991;BME280;31721;41.740;-88.000;2023-12-20T00:24:50;99702.65;;;-1.29;46.91
45991;BME280;31721;41.740;-88.000;2023-12-20T00:27:18;99701.91;;;-1.48;47.61
45991;BME280;31721;41.740;-88.000;2023-12-20T00:29:46;99710.98;;;-1.44;47.26
45991;BME280;31721;41.740;-88.000;2023-12-20T00:32:13;99707.31;;;-1.71;47.91
45991;BME280;31721;41.740;-88.000;2023-12-20T00:34:42;99714.97;;;-1.39;47.27
45991;BME280;31721;41.740;-88.000;2023-12-20T00:37:10;99713.49;;;-1.47;47.75
45991;BME280;31721;41.740;-88.000;2023-12-20T00:39:37;99714.51;;;-1.22;46.97
45991;BME280;31721;41.740;-88.000;2023-12-20T00:42:06;99708.95;;;-1.29;47.19
45991;BME280;31721;41.740;-88.000;2023-12-20T00:44:34;99711.13;;;-1.34;46.93
45991;BME280;31721;41.740;-88.000;2023-12-20T00:47:01;99712.49;;;-1.56;47.73
45991;BME280;31721;41.740;-88.000;2023-12-20T00:49:29;99714.09;;;-1.65;48.14
45991;BME280;31721;41.740;-88.000;2023-12-20T00:51:58;99714.85;;;-1.47;47.63
45991;BME280;31721;41.740;-88.000;2023-12-20T00:54:26;99710.94;;;-1.79;48.34
45991;BME280;31721;41.740;-88.000;2023-12-20T00:56:54;99712.63;;;-1.68;47.55
45991;BME280;31721;41.740;-88.000;2023-12-20T00:59:22;99717.56;;;-1.50;47.50
45991;BME280;31721;41.740;-88.000;2023-12-20T01:01:50;99720.47;;;-1.50;47.45
45991;BME280;31721;41.740;-88.000;2023-12-20T01:04:18;99720.58;;;-1.43;47.55
45991;BME280;31721;41.740;-88.000;2023-12-20T01:06:46;99718.40;;;-1.69;48.09
45991;BME280;31721;41.740;-88.000;2023-12-20T01:09:14;99713.47;;;-1.54;47.45
45991;BME280;31721;41.740;-88.000;2023-12-20T01:11:43;99722.15;;;-1.42;47.68
45991;BME280;31721;41.740;-88.000;2023-12-20T01:14:11;99719.46;;;-1.91;48.39
45991;BME280;31721;41.740;-88.000;2023-12-20T01:16:40;99722.55;;;-1.46;47.19
45991;BME280;31721;41.740;-88.000;2023-12-20T01:19:07;99721.08;;;-1.49;47.10
45991;BME280;31721;41.740;-88.000;2023-12-20T01:21:36;99725.31;;;-1.68;47.74
45991;BME280;31721;41.740;-88.000;2023-12-20T01:24:04;99733.13;;;-1.78;47.57
45991;BME280;31721;41.740;-88.000;2023-12-20T01:26:33;99741.45;;;-1.83;47.71
45991;BME280;31721;41.740;-88.000;2023-12-20T01:29:01;99738.76;;;-1.83;47.64
45991;BME280;31721;41.740;-88.000;2023-12-20T01:31:29;99742.58;;;-1.68;47.54
45991;BME280;31721;41.740;-88.000;2023-12-20T01:33:57;99736.43;;;-2.18;48.32
45991;BME280;31721;41.740;-88.000;2023-12-20T01:36:25;99739.02;;;-2.02;48.23
45991;BME280;31721;41.740;-88.000;2023-12-20T01:38:53;99740.73;;;-2.12;48.30
45991;BME280;31721;41.740;-88.000;2023-12-20T01:41:21;99735.58;;;-1.76;47.54
45991;BME280;31721;41.740;-88.000;2023-12-20T01:43:49;99733.90;;;-1.75;47.85
45991;BME280;31721;41.740;-88.000;2023-12-20T01:46:17;99732.97;;;-1.69;47.49
45991;BME280;31721;41.740;-88.000;2023-12-20T01:48:46;99732.90;;;-1.41;47.34
45991;BME280;31721;41.740;-88.000;2023-12-20T01:51:15;99731.87;;;-1.95;47.99
45991;BME280;31721;41.740;-88.000;2023-12-20T01:53:43;99733.32;;;-1.81;47.90
45991;BME280;31721;41.740;-88.000;2023-12-20T01:56:11;99730.65;;;-1.62;47.82
45991;BME280;31721;41.740;-88.000;2023-12-20T01:58:44;99735.85;;;-2.37;49.26
45991;BME280;31721;41.740;-88.000;2023-12-20T02:01:13;99727.61;;;-2.41;49.30
45991;BME280;31721;41.740;-88.000;2023-12-20T02:03:47;99724.98;;;-2.11;48.44
45991;BME280;31721;41.740;-88.000;2023-12-20T02:06:16;99725.20;;;-1.99;48.49
45991;BME280;31721;41.740;-88.000;2023-12-20T02:08:45;99722.78;;;-1.60;48.02
45991;BME280;31721;41.740;-88.000;2023-12-20T02:11:14;99718.50;;;-1.67;47.86
45991;BME280;31721;41.740;-88.000;2023-12-20T02:13:41;99723.52;;;-1.39;47.56
45991;BME280;31721;41.740;-88.000;2023-12-20T02:16:10;99721.12;;;-2.11;48.64
45991;BME280;31721;41.740;-88.000;2023-12-20T02:18:38;99726.45;;;-1.94;48.32
45991;BME280;31721;41.740;-88.000;2023-12-20T02:21:06;99721.87;;;-1.73;47.80
45991;BME280;31721;41.740;-88.000;2023-12-20T02:23:35;99721.93;;;-2.15;48.39
45991;BME280;31721;41.740;-88.000;2023-12-20T02:26:04;99722.66;;;-2.09;48.34
45991;BME280;31721;41.740;-88.000;2023-12-20T02:28:32;99719.23;;;-1.77;47.75
45991;BME280;31721;41.740;-88.000;2023-12-20T02:31:00;99727.80;;;-1.69;47.81
45991;BME280;31721;41.740;-88.000;2023-12-20T02:33:28;99720.72;;;-1.44;47.20
45991;BME280;31721;41.740;-88.000;2023-12-20T02:35:56;99719.31;;;-1.70;47.58
45991;BME280;31721;41.740;-88.000;2023-12-20T02:38:23;99711.80;;;-1.57;47.28
45991;BME280;31721;41.740;-88.000;2023-12-20T02:40:51;99711.97;;;-2.19;48.41
45991;BME280;31721;41.740;-88.000;2023-12-20T02:43:18;99712.27;;;-1.78;47.70
45991;BME280;31721;41.740;-88.000;2023-12-20T02:45:46;99707.90;;;-1.40;47.22
45991;BME280;31721;41.740;-88.000;2023-12-20T02:48:14;99707.09;;;-1.79;47.63
45991;BME280;31721;41.740;-88.000;2023-12-20T02:50:41;99703.75;;;-1.86;47.65
45991;BME280;31721;41.740;-88.000;2023-12-20T02:53:09;99701.15;;;-2.25;48.18
45991;BME280;31721;41.740;-88.000;2023-12-20T02:55:37;99709.76;;;-1.81;47.44
45991;BME280;31721;41.740;-88.000;2023-12-20T02:58:05;99708.48;;;-1.84;47.26
45991;BME280;31721;41.740;-88.000;2023-12-20T03:00:32;99713.62;;;-1.48;46.93
45991;BME280;31721;41.740;-88.000;2023-12-20T03:03:00;99716.14;;;-0.94;45.98
45991;BME280;31721;41.740;-88.000;2023-12-20T03:05:28;99715.54;;;-1.75;47.15
45991;BME280;31721;41.740;-88.000;2023-12-20T03:07:56;99711.26;;;-1.31;46.77
45991;BME280;31721;41.740;-88.000;2023-12-20T03:10:24;99713.02;;;-1.21;46.80
45991;BME280;31721;41.740;-88.000;2023-12-20T03:12:51;99713.83;;;-1.28;46.18
45991;BME280;31721;41.740;-88.000;2023-12-20T03:15:19;99714.64;;;-1.15;46.50
45991;BME280;31721;41.740;-88.000;2023-12-20T03:17:46;99713.80;;;-0.96;46.12
45991;BME280;31721;41.740;-88.000;2023-12-20T03:20:14;99721.11;;;-0.80;45.91
45991;BME280;31721;41.740;-88.000;2023-12-20T03:22:41;99722.35;;;-1.06;46.26
45991;BME280;31721;41.740;-88.000;2023-12-20T03:25:09;99719.41;;;-0.75;45.90
45991;BME280;31721;41.740;-88.000;2023-12-20T03:27:37;99722.00;;;-0.94;45.97
45991;BME280;31721;41.740;-88.000;2023-12-20T03:30:06;99730.95;;;-1.09;46.28
45991;BME280;31721;41.740;-88.000;2023-12-20T03:32:34;99733.46;;;-1.65;46.49
45991;BME280;31721;41.740;-88.000;2023-12-20T03:35:02;99739.60;;;-1.44;46.56
45991;BME280;31721;41.740;-88.000;2023-12-20T03:37:30;99735.27;;;-1.56;47.10
45991;BME280;31721;41.740;-88.000;2023-12-20T03:39:58;99736.98;;;-1.31;46.58
45991;BME280;31721;41.740;-88.000;2023-12-20T03:42:26;99738.36;;;-1.58;46.55
45991;BME280;31721;41.740;-88.000;2023-12-20T03:44:54;99738.10;;;-1.11;46.18
45991;BME280;31721;41.740;-88.000;2023-12-20T03:47:22;99737.53;;;-1.39;46.37
45991;BME280;31721;41.740;-88.000;2023-12-20T03:49:49;99737.40;;;-1.39;46.38
45991;BME280;31721;41.740;-88.000;2023-12-20T03:52:17;99742.59;;;-1.25;46.63
45991;BME280;31721;41.740;-88.000;2023-12-20T03:54:44;99742.70;;;-0.98;46.32
45991;BME280;31721;41.740;-88.000;2023-12-20T03:57:12;99738.63;;;-1.47;46.43
45991;BME280;31721;41.740;-88.000;2023-12-20T03:59:39;99736.14;;;-1.33;46.84
45991;BME280;31721;41.740;-88.000;2023-12-20T04:02:07;99746.11;;;-1.33;46.45
45991;BME280;31721;41.740;-88.000;2023-12-20T04:04:34;99747.59;;;-1.04;46.41
45991;BME280;31721;41.740;-88.000;2023-12-20T04:07:01;99741.27;;;-1.34;46.46
45991;BME280;31721;41.740;-88.000;2023-12-20T04:09:29;99747.21;;;-1.16;46.38
45991;BME280;31721;41.740;-88.000;2023-12-20T04:11:57;99748.02;;;-0.79;45.67
45991;BME280;31721;41.740;-88.000;2023-12-20T04:14:24;99750.31;;;-0.88;45.98
45991;BME280;31721;41.740;-88.000;2023-12-20T04:16:53;99746.92;;;-0.95;45.92
45991;BME280;31721;41.740;-88.000;2023-12-20T04:19:20;99747.35;;;-1.66;46.83
45991;BME280;31721;41.740;-88.000;2023-12-20T04:21:48;99748.61;;;-1.11;46.33
45991;BME280;31721;41.740;-88.000;2023-12-20T04:24:16;99747.55;;;-1.51;46.35
45991;BME280;31721;41.740;-88.000;2023-12-20T04:26:44;99747.70;;;-0.88;45.99
45991;BME280;31721;41.740;-88.000;2023-12-20T04:29:11;99747.12;;;-0.95;46.01
45991;BME280;31721;41.740;-88.000;2023-12-20T04:31:39;99745.78;;;-1.52;46.45
45991;BME280;31721;41.740;-88.000;2023-12-20T04:34:07;99742.66;;;-0.96;46.31
45991;BME280;31721;41.740;-88.000;2023-12-20T04:36:35;99739.35;;;-1.00;46.18
45991;BME280;31721;41.740;-88.000;2023-12-20T04:39:03;99739.54;;;-0.96;45.99
45991;BME280;31721;41.740;-88.000;2023-12-20T04:41:30;99745.50;;;-1.40;46.32
45991;BME280;31721;41.740;-88.000;2023-12-20T04:43:58;99740.10;;;-1.51;46.57
45991;BME280;31721;41.740;-88.000;2023-12-20T04:46:27;99740.50;;;-1.16;46.44
45991;BME280;31721;41.740;-88.000;2023-12-20T04:49:00;99741.63;;;-1.24;46.25
45991;BME280;31721;41.740;-88.000;2023-12-20T04:51:28;99745.73;;;-1.31;46.21
45991;BME280;31721;41.740;-88.000;2023-12-20T04:53:56;99745.92;;;-1.30;46.59
45991;BME280;31721;41.740;-88.000;2023-12-20T04:56:23;99744.11;;;-1.79;47.42
45991;BME280;31721;41.740;-88.000;2023-12-20T04:58:51;99746.42;;;-1.35;47.11
45991;BME280;31721;41.740;-88.000;2023-12-20T05:01:19;99753.81;;;-1.73;47.22
45991;BME280;31721;41.740;-88.000;2023-12-20T05:03:47;99749.65;;;-1.46;46.89
45991;BME280;31721;41.740;-88.000;2023-12-20T05:06:15;99754.10;;;-1.69;47.16
45991;BME280;31721;41.740;-88.000;2023-12-20T05:08:43;99756.56;;;-1.39;46.93
45991;BME280;31721;41.740;-88.000;2023-12-20T05:11:11;99756.37;;;-1.26;47.03
45991;BME280;31721;41.740;-88.000;2023-12-20T05:13:39;99755.91;;;-1.42;47.01
45991;BME280;31721;41.740;-88.000;2023-12-20T05:16:06;99760.69;;;-1.16;46.78
45991;BME280;31721;41.740;-88.000;2023-12-20T05:18:34;99758.01;;;-1.30;46.75
45991;BME280;31721;41.740;-88.000;2023-12-20T05:21:01;99749.82;;;-1.52;47.24
45991;BME280;31721;41.740;-88.000;2023-12-20T05:23:29;99756.55;;;-1.25;46.94
45991;BME280;31721;41.740;-88.000;2023-12-20T05:25:57;99755.18;;;-1.20;47.15
45991;BME280;31721;41.740;-88.000;2023-12-20T05:28:24;99756.19;;;-1.53;47.42
45991;BME280;31721;41.740;-88.000;2023-12-20T05:30:52;99757.08;;;-1.43;47.04
45991;BME280;31721;41.740;-88.000;2023-12-20T05:33:20;99758.29;;;-1.64;47.28
45991;BME280;31721;41.740;-88.000;2023-12-20T05:35:47;99754.43;;;-1.79;47.60
45991;BME280;31721;41.740;-88.000;2023-12-20T05:38:15;99756.92;;;-1.36;47.20
45991;BME280;31721;41.740;-88.000;2023-12-20T05:40:43;99759.23;;;-1.28;47.12
45991;BME280;31721;41.740;-88.000;2023-12-20T05:43:10;99767.56;;;-1.35;47.05
45991;BME280;31721;41.740;-88.000;2023-12-20T05:45:38;99767.64;;;-1.26;47.08
45991;BME280;31721;41.740;-88.000;2023-12-20T05:48:06;99766.14;;;-1.13;46.96
45991;BME280;31721;41.740;-88.000;2023-12-20T05:50:34;99763.05;;;-1.03;46.70
45991;BME280;31721;41.740;-88.000;2023-12-20T05:53:02;99760.52;;;-1.25;46.88
45991;BME280;31721;41.740;-88.000;2023-12-20T05:55:29;99761.45;;;-1.77;48.18
45991;BME280;31721;41.740;-88.000;2023-12-20T05:57:57;99766.61;;;-1.37;47.22
45991;BME280;31721;41.740;-88.000;2023-12-20T06:00:25;99771.51;;;-0.92;47.06
45991;BME280;31721;41.740;-88.000;2023-12-20T06:02:52;99768.68;;;-0.96;46.66
45991;BME280;31721;41.740;-88.000;2023-12-20T06:05:20;99765.73;;;-1.14;46.78
45991;BME280;31721;41.740;-88.000;2023-12-20T06:07:47;99769.37;;;-0.99;46.98
45991;BME280;31721;41.740;-88.000;2023-12-20T06:10:15;99765.66;;;-1.13;46.84
45991;BME280;31721;41.740;-88.000;2023-12-20T06:12:43;99770.59;;;-1.05;47.00
45991;BME280;31721;41.740;-88.000;2023-12-20T06:15:10;99772.50;;;-1.19;46.87
45991;BME280;31721;41.740;-88.000;2023-12-20T06:17:38;99772.50;;;-1.39;47.28
45991;BME280;31721;41.740;-88.000;2023-12-20T06:20:08;99767.65;;;-1.08;47.15
45991;BME280;31721;41.740;-88.000;2023-12-20T06:22:36;99770.87;;;-0.99;47.05
45991;BME280;31721;41.740;-88.000;2023-12-20T06:25:05;99769.58;;;-1.06;47.36
45991;BME280;31721;41.740;-88.000;2023-12-20T06:27:33;99768.39;;;-0.64;46.60
45991;BME280;31721;41.740;-88.000;2023-12-20T06:30:00;99764.90;;;-0.69;46.50
45991;BME280;31721;41.740;-88.000;2023-12-20T06:32:27;99773.80;;;-0.50;46.67
45991;BME280;31721;41.740;-88.000;2023-12-20T06:34:55;99775.76;;;-0.43;46.39
45991;BME280;31721;41.740;-88.000;2023-12-20T06:37:22;99775.01;;;-0.60;46.39
45991;BME280;31721;41.740;-88.000;2023-12-20T06:39:50;99780.97;;;-0.68;46.25
45991;BME280;31721;41.740;-88.000;2023-12-20T06:42:18;99784.19;;;-0.40;46.37
45991;BME280;31721;41.740;-88.000;2023-12-20T06:44:45;99785.15;;;-0.44;46.04
45991;BME280;31721;41.740;-88.000;2023-12-20T06:47:13;99787.28;;;-0.42;46.12
45991;BME280;31721;41.740;-88.000;2023-12-20T06:49:40;99787.03;;;-0.29;46.11
45991;BME280;31721;41.740;-88.000;2023-12-20T06:52:08;99790.03;;;-0.29;46.23
45991;BME280;31721;41.740;-88.000;2023-12-20T06:54:35;99791.60;;;-0.28;46.06
45991;BME280;31721;41.740;-88.000;2023-12-20T06:57:03;99793.48;;;-0.06;46.13
45991;BME280;31721;41.740;-88.000;2023-12-20T06:59:31;99786.38;;;-0.03;46.00
45991;BME280;31721;41.740;-88.000;2023-12-20T07:01:59;99782.51;;;-0.13;46.25
45991;BME280;31721;41.740;-88.000;2023-12-20T07:04:27;99778.89;;;0.09;46.05
45991;BME280;31721;41.740;-88.000;2023-12-20T07:06:54;99779.16;;;0.00;46.20
45991;BME280;31721;41.740;-88.000;2023-12-20T07:09:22;99778.20;;;0.17;46.04
45991;BME280;31721;41.740;-88.000;2023-12-20T07:11:49;99782.65;;;0.30;45.95
45991;BME280;31721;41.740;-88.000;2023-12-20T07:14:17;99782.68;;;0.30;45.43
45991;BME280;31721;41.740;-88.000;2023-12-20T07:16:44;99782.77;;;0.37;45.77
45991;BME280;31721;41.740;-88.000;2023-12-20T07:19:12;99784.78;;;0.41;45.55
45991;BME280;31721;41.740;-88.000;2023-12-20T07:21:40;99790.64;;;0.29;45.74
45991;BME280;31721;41.740;-88.000;2023-12-20T07:24:07;99790.95;;;0.46;45.44
45991;BME280;31721;41.740;-88.000;2023-12-20T07:26:35;99792.93;;;0.54;45.44
45991;BME280;31721;41.740;-88.000;2023-12-20T07:29:03;99791.02;;;0.55;45.55
45991;BME280;31721;41.740;-88.000;2023-12-20T07:31:31;99789.67;;;0.59;45.47
45991;BME280;31721;41.740;-88.000;2023-12-20T07:33:58;99790.38;;;0.58;45.50
45991;BME280;31721;41.740;-88.000;2023-12-20T07:36:26;99792.75;;;0.54;45.36
45991;BME280;31721;41.740;-88.000;2023-12-20T07:38:53;99798.49;;;0.56;45.40
45991;BME280;31721;41.740;-88.000;2023-12-20T07:41:21;99793.23;;;0.61;45.23
45991;BME280;31721;41.740;-88.000;2023-12-20T07:43:48;99792.99;;;0.33;45.39
45991;BME280;31721;41.740;-88.000;2023-12-20T07:46:16;99794.83;;;0.37;45.37
45991;BME280;31721;41.740;-88.000;2023-12-20T07:48:43;99795.67;;;0.45;45.42
45991;BME280;31721;41.740;-88.000;2023-12-20T07:51:11;99793.88;;;0.18;45.60
45991;BME280;31721;41.740;-88.000;2023-12-20T07:53:39;99793.75;;;0.38;45.51
45991;BME280;31721;41.740;-88.000;2023-12-20T07:56:14;99798.90;;;0.49;45.48
45991;BME280;31721;41.740;-88.000;2023-12-20T07:58:42;99795.35;;;0.12;45.20
45991;BME280;31721;41.740;-88.000;2023-12-20T08:01:09;99794.49;;;0.22;45.46
45991;BME280;31721;41.740;-88.000;2023-12-20T08:03:37;99795.93;;;-0.17;45.79
45991;BME280;31721;41.740;-88.000;2023-12-20T08:06:04;99797.13;;;-0.03;45.57
45991;BME280;31721;41.740;-88.000;2023-12-20T08:08:32;99797.92;;;-0.02;46.04
45991;BME280;31721;41.740;-88.000;2023-12-20T08:10:59;99798.97;;;0.28;45.97
45991;BME280;31721;41.740;-88.000;2023-12-20T08:13:27;99795.61;;;0.10;45.76
45991;BME280;31721;41.740;-88.000;2023-12-20T08:15:55;99799.23;;;0.23;45.78
45991;BME280;31721;41.740;-88.000;2023-12-20T08:18:23;99801.63;;;0.01;46.08
45991;BME280;31721;41.740;-88.000;2023-12-20T08:20:50;99799.98;;;0.09;45.94
45991;BME280;31721;41.740;-88.000;2023-12-20T08:23:18;99799.20;;;0.21;46.09
45991;BME280;31721;41.740;-88.000;2023-12-20T08:25:46;99798.24;;;0.19;46.01
45991;BME280;31721;41.740;-88.000;2023-12-20T08:28:13;99800.13;;;0.23;46.21
45991;BME280;31721;41.740;-88.000;2023-12-20T08:30:41;99795.62;;;0.23;46.06
45991;BME280;31721;41.740;-88.000;2023-12-20T08:33:08;99793.20;;;-0.04;45.76
45991;BME280;31721;41.740;-88.000;2023-12-20T08:35:36;99794.02;;;0.05;45.76
45991;BME280;31721;41.740;-88.000;2023-12-20T08:38:04;99796.36;;;-0.30;46.16
45991;BME280;31721;41.740;-88.000;2023-12-20T08:40:31;99794.23;;;-0.13;45.90
45991;BME280;31721;41.740;-88.000;2023-12-20T08:42:59;99793.14;;;-0.26;46.15
45991;BME280;31721;41.740;-88.000;2023-12-20T08:45:26;99787.23;;;-0.22;46.20
45991;BME280;31721;41.740;-88.000;2023-12-20T08:47:54;99785.64;;;-0.55;46.58
45991;BME280;31721;41.740;-88.000;2023-12-20T08:50:21;99783.11;;;-0.08;46.35
45991;BME280;31721;41.740;-88.000;2023-12-20T08:52:49;99781.80;;;-0.09;46.12
45991;BME280;31721;41.740;-88.000;2023-12-20T08:55:17;99781.61;;;0.04;46.17
45991;BME280;31721;41.740;-88.000;2023-12-20T08:57:44;99779.02;;;0.03;46.11
45991;BME280;31721;41.740;-88.000;2023-12-20T09:00:13;99781.61;;;0.17;45.96
45991;BME280;31721;41.740;-88.000;2023-12-20T09:02:41;99782.30;;;0.17;46.04
45991;BME280;31721;41.740;-88.000;2023-12-20T09:05:09;99785.48;;;0.04;46.08
45991;BME280;31721;41.740;-88.000;2023-12-20T09:07:37;99780.92;;;-0.17;46.16
45991;BME280;31721;41.740;-88.000;2023-12-20T09:10:05;99778.17;;;-0.29;46.11
45991;BME280;31721;41.740;-88.000;2023-12-20T09:12:33;99776.52;;;-0.18;46.19
45991;BME280;31721;41.740;-88.000;2023-12-20T09:15:01;99781.27;;;-0.04;46.49
45991;BME280;31721;41.740;-88.000;2023-12-20T09:17:28;99783.31;;;0.03;46.37
45991;BME280;31721;41.740;-88.000;2023-12-20T09:19:56;99784.94;;;-0.10;46.46
45991;BME280;31721;41.740;-88.000;2023-12-20T09:22:23;99788.37;;;-0.01;46.51
45991;BME280;31721;41.740;-88.000;2023-12-20T09:24:51;99791.07;;;-0.21;46.46
45991;BME280;31721;41.740;-88.000;2023-12-20T09:27:18;99795.79;;;-0.36;46.44
45991;BME280;31721;41.740;-88.000;2023-12-20T09:29:46;99791.95;;;-0.21;46.45
45991;BME280;31721;41.740;-88.000;2023-12-20T09:32:14;99794.73;;;-0.44;46.77
45991;BME280;31721;41.740;-88.000;2023-12-20T09:34:41;99796.41;;;-0.30;46.51
45991;BME280;31721;41.740;-88.000;2023-12-20T09:37:09;99799.31;;;-0.44;46.56
45991;BME280;31721;41.740;-88.000;2023-12-20T09:39:37;99795.25;;;-0.36;46.86
45991;BME280;31721;41.740;-88.000;2023-12-20T09:42:05;99791.60;;;-0.36;46.60
45991;BME280;31721;41.740;-88.000;2023-12-20T09:44:34;99792.40;;;-0.14;46.52
45991;BME280;31721;41.740;-88.000;2023-12-20T09:47:03;99794.20;;;-0.66;47.07
45991;BME280;31721;41.740;-88.000;2023-12-20T09:49:33;99795.54;;;-0.73;46.78
45991;BME280;31721;41.740;-88.000;2023-12-20T09:52:01;99797.92;;;-0.36;46.73
45991;BME280;31721;41.740;-88.000;2023-12-20T09:54:29;99795.79;;;-0.67;47.26
45991;BME280;31721;41.740;-88.000;2023-12-20T09:56:57;99793.96;;;-0.92;47.38
45991;BME280;31721;41.740;-88.000;2023-12-20T09:59:24;99795.37;;;-0.71;47.01
45991;BME280;31721;41.740;-88.000;2023-12-20T10:01:55;99797.74;;;-0.55;46.95
45991;BME280;31721;41.740;-88.000;2023-12-20T10:04:23;99798.97;;;-0.79;47.24
45991;BME280;31721;41.740;-88.000;2023-12-20T10:06:51;99801.90;;;-0.70;46.92
45991;BME280;31721;41.740;-88.000;2023-12-20T10:09:18;99798.65;;;-1.30;48.10
45991;BME280;31721;41.740;-88.000;2023-12-20T10:11:46;99795.75;;;-1.24;47.42
45991;BME280;31721;41.740;-88.000;2023-12-20T10:14:13;99795.71;;;-0.87;47.42
45991;BME280;31721;41.740;-88.000;2023-12-20T10:16:41;99792.67;;;-0.66;47.47
45991;BME280;31721;41.740;-88.000;2023-12-20T10:19:08;99798.30;;;-0.91;47.41
45991;BME280;31721;41.740;-88.000;2023-12-20T10:21:36;99792.80;;;-0.78;47.37
45991;BME280;31721;41.740;-88.000;2023-12-20T10:24:04;99793.88;;;-0.77;47.20
45991;BME280;31721;41.740;-88.000;2023-12-20T10:26:32;99790.62;;;-0.74;46.96
45991;BME280;31721;41.740;-88.000;2023-12-20T10:29:00;99787.62;;;-0.78;47.45
45991;BME280;31721;41.740;-88.000;2023-12-20T10:31:29;99790.06;;;-0.60;47.26
45991;BME280;31721;41.740;-88.000;2023-12-20T10:33:58;99792.28;;;-0.74;47.03
45991;BME280;31721;41.740;-88.000;2023-12-20T10:36:29;99796.42;;;-0.61;47.20
45991;BME280;31721;41.740;-88.000;2023-12-20T10:38:57;99798.61;;;-0.69;47.20
45991;BME280;31721;41.740;-88.000;2023-12-20T10:41:26;99804.67;;;-0.64;47.23
45991;BME280;31721;41.740;-88.000;2023-12-20T10:43:57;99808.20;;;-0.79;47.11
45991;BME280;31721;41.740;-88.000;2023-12-20T10:46:26;99803.06;;;-0.64;47.04
45991;BME280;31721;41.740;-88.000;2023-12-20T10:48:55;99807.40;;;-0.80;47.29
45991;BME280;31721;41.740;-88.000;2023-12-20T10:51:23;99807.23;;;-0.61;47.14
45991;BME280;31721;41.740;-88.000;2023-12-20T10:53:53;99812.79;;;-0.62;47.29
45991;BME280;31721;41.740;-88.000;2023-12-20T10:56:20;99814.82;;;-0.99;47.57
45991;BME280;31721;41.740;-88.000;2023-12-20T10:58:49;99816.45;;;-0.77;47.44
45991;BME280;31721;41.740;-88.000;2023-12-20T11:01:18;99819.77;;;-0.83;47.57
45991;BME280;31721;41.740;-88.000;2023-12-20T11:03:51;99824.79;;;-0.69;47.20
45991;BME280;31721;41.740;-88.000;2023-12-20T11:06:27;99827.73;;;-0.73;47.16
45991;BME280;31721;41.740;-88.000;2023-12-20T11:09:06;99826.57;;;-0.84;47.53
45991;BME280;31721;41.740;-88.000;2023-12-20T11:11:45;99831.24;;;-0.87;47.31
45991;BME280;31721;41.740;-88.000;2023-12-20T11:14:22;99829.89;;;-1.05;47.50
45991;BME280;31721;41.740;-88.000;2023-12-20T11:16:51;99836.66;;;-1.24;47.86
45991;BME280;31721;41.740;-88.000;2023-12-20T11:19:32;99837.66;;;-0.82;47.72
45991;BME280;31721;41.740;-88.000;2023-12-20T11:22:00;99841.14;;;-0.93;47.71
45991;BME280;31721;41.740;-88.000;2023-12-20T11:24:27;99843.19;;;-0.83;47.69
45991;BME280;31721;41.740;-88.000;2023-12-20T11:26:56;99844.24;;;-0.86;47.85
45991;BME280;31721;41.740;-88.000;2023-12-20T11:29:32;99845.31;;;-0.88;47.56
45991;BME280;31721;41.740;-88.000;2023-12-20T11:32:01;99847.47;;;-1.21;47.57
45991;BME280;31721;41.740;-88.000;2023-12-20T11:34:31;99848.18;;;-0.95;47.76
45991;BME280;31721;41.740;-88.000;2023-12-20T11:37:01;99856.07;;;-1.04;47.72
45991;BME280;31721;41.740;-88.000;2023-12-20T11:39:31;99862.18;;;-1.02;47.67
45991;BME280;31721;41.740;-88.000;2023-12-20T11:42:04;99867.63;;;-1.22;48.43
45991;BME280;31721;41.740;-88.000;2023-12-20T11:44:32;99867.48;;;-1.17;48.22
45991;BME280;31721;41.740;-88.000;2023-12-20T11:47:00;99868.50;;;-1.40;48.32
45991;BME280;31721;41.740;-88.000;2023-12-20T11:49:28;99874.81;;;-1.08;48.13
45991;BME280;31721;41.740;-88.000;2023-12-20T11:51:55;99874.71;;;-0.89;47.97
45991;BME280;31721;41.740;-88.000;2023-12-20T11:54:23;99877.15;;;-1.23;47.93
45991;BME280;31721;41.740;-88.000;2023-12-20T11:56:51;99875.35;;;-0.91;47.83
45991;BME280;31721;41.740;-88.000;2023-12-20T11:59:18;99876.98;;;-1.01;47.77
45991;BME280;31721;41.740;-88.000;2023-12-20T12:01:48;99878.39;;;-1.03;47.76
45991;BME280;31721;41.740;-88.000;2023-12-20T12:04:16;99878.95;;;-1.27;48.29
45991;BME280;31721;41.740;-88.000;2023-12-20T12:06:45;99880.31;;;-1.09;48.08
45991;BME280;31721;41.740;-88.000;2023-12-20T12:09:12;99883.40;;;-1.21;47.75
45991;BME280;31721;41.740;-88.000;2023-12-20T12:11:40;99880.50;;;-0.98;47.96
45991;BME280;31721;41.740;-88.000;2023-12-20T12:14:08;99886.43;;;-1.10;48.11
45991;BME280;31721;41.740;-88.000;2023-12-20T12:16:36;99890.40;;;-1.07;48.08
45991;BME280;31721;41.740;-88.000;2023-12-20T12:19:04;99894.37;;;-1.07;48.14
45991;BME280;31721;41.740;-88.000;2023-12-20T12:21:31;99898.61;;;-1.18;48.17
45991;BME280;31721;41.740;-88.000;2023-12-20T12:24:08;99906.24;;;-1.03;48.19
45991;BME280;31721;41.740;-88.000;2023-12-20T12:26:36;99912.01;;;-0.87;48.11
45991;BME280;31721;41.740;-88.000;2023-12-20T12:29:04;99916.94;;;-0.93;47.88
45991;BME280;31721;41.740;-88.000;2023-12-20T12:31:34;99916.84;;;-1.01;47.99
45991;BME280;31721;41.740;-88.000;2023-12-20T12:34:02;99919.00;;;-0.95;48.19
45991;BME280;31721;41.740;-88.000;2023-12-20T12:36:30;99920.62;;;-0.86;48.09
45991;BME280;31721;41.740;-88.000;2023-12-20T12:38:57;99920.49;;;-0.87;48.21
45991;BME280;31721;41.740;-88.000;2023-12-20T12:41:25;99921.39;;;-0.80;48.14
45991;BME280;31721;41.740;-88.000;2023-12-20T12:43:53;99920.42;;;-0.76;47.96